Time;durP1;ratioP1;P1;durP2;ratioP2;P2;SDS_P1;SDS_P2;PMS_P1;PMS_P2;Temp;Humidity;BMP_temperature;BMP_pressure;BME280_temperature;BME280_humidity;BME280_pressure;Samples;Min_cycle;Max_cycle;Signal;HPM_P1;HPM_P2
2022/07/19 00:01:06;;;;;;;0.00;0.00;;;;;;;;;;5032431;28;20474;-71
2022/07/19 00:03:31;;;;;;;0.75;0.75;;;;;;;;;;5033647;28;20026;-70
2022/07/19 00:05:58;;;;;;;0.00;0.00;;;;;;;;;;5032346;28;20055;-70
2022/07/19 00:08:23;;;;;;;0.00;0.00;;;;;;;;;;5031921;28;20478;-69
2022/07/19 00:10:49;;;;;;;0.00;0.00;;;;;;;;;;5032121;28;20022;-70
2022/07/19 00:13:14;;;;;;;0.00;0.00;;;;;;;;;;5031848;28;20021;-68
2022/07/19 00:15:42;;;;;;;0.00;0.00;;;;;;;;;;5033166;28;20536;-70
2022/07/19 00:18:07;;;;;;;0.00;0.00;;;;;;;;;;5032015;28;20032;-69
2022/07/19 00:20:33;;;;;;;0.00;0.00;;;;;;;;;;5033576;28;20455;-70
2022/07/19 00:22:58;;;;;;;0.00;0.00;;;;;;;;;;5032401;28;20295;-70
2022/07/19 00:25:23;;;;;;;0.00;0.00;;;;;;;;;;5033962;28;20501;-69
2022/07/19 00:27:51;;;;;;;0.00;0.00;;;;;;;;;;5031811;28;20505;-70
2022/07/19 00:30:16;;;;;;;0.00;0.00;;;;;;;;;;5030702;28;20026;-70
2022/07/19 00:32:41;;;;;;;0.00;0.00;;;;;;;;;;5031452;28;20721;-70
2022/07/19 00:35:07;;;;;;;0.00;0.00;;;;;;;;;;5033405;28;20026;-70
2022/07/19 00:37:33;;;;;;;0.00;0.00;;;;;;;;;;5030978;28;20418;-70
2022/07/19 00:39:58;;;;;;;0.00;0.00;;;;;;;;;;5032801;28;20029;-70
2022/07/19 00:42:23;;;;;;;0.00;0.00;;;;;;;;;;5014618;28;20112;-70
2022/07/19 00:44:48;;;;;;;0.00;0.00;;;;;;;;;;5032963;28;20355;-70
2022/07/19 00:47:14;;;;;;;0.00;0.00;;;;;;;;;;5033480;28;20374;-70
2022/07/19 00:49:39;;;;;;;0.00;0.00;;;;;;;;;;5032014;28;20017;-70
2022/07/19 00:52:05;;;;;;;0.00;0.00;;;;;;;;;;5031618;28;20395;-70
2022/07/19 00:54:33;;;;;;;0.00;0.00;;;;;;;;;;5032491;28;20033;-70
2022/07/19 00:56:59;;;;;;;2.10;2.10;;;;;;;;;;5032855;28;20468;-70
2022/07/19 00:59:25;;;;;;;0.20;0.20;;;;;;;;;;5031555;28;20580;-70
2022/07/19 01:01:51;;;;;;;0.00;0.00;;;;;;;;;;5033092;28;20129;-70
2022/07/19 01:04:17;;;;;;;0.00;0.00;;;;;;;;;;5031619;28;20136;-70
2022/07/19 01:06:43;;;;;;;0.10;0.10;;;;;;;;;;5030194;28;20460;-71
2022/07/19 01:09:08;;;;;;;0.00;0.00;;;;;;;;;;5018128;28;20164;-71
2022/07/19 01:11:33;;;;;;;0.20;0.20;;;;;;;;;;5012805;28;20173;-71
2022/07/19 01:13:59;;;;;;;0.00;0.00;;;;;;;;;;5012023;28;20113;-71
2022/07/19 01:16:24;;;;;;;0.00;0.00;;;;;;;;;;5013298;28;20096;-70
2022/07/19 01:18:52;;;;;;;0.00;0.00;;;;;;;;;;5012445;28;20100;-70
2022/07/19 01:21:21;;;;;;;0.00;0.00;;;;;;;;;;5013428;28;20022;-70
2022/07/19 01:23:46;;;;;;;0.00;0.00;;;;;;;;;;5013335;28;20097;-70
2022/07/19 01:26:11;;;;;;;0.00;0.00;;;;;;;;;;5012699;28;20128;-69
2022/07/19 01:28:37;;;;;;;0.00;0.00;;;;;;;;;;5013315;28;20030;-69
2022/07/19 01:31:02;;;;;;;0.00;0.00;;;;;;;;;;5012499;28;20057;-69
2022/07/19 01:33:27;;;;;;;0.00;0.00;;;;;;;;;;5013221;28;20049;-69
2022/07/19 01:35:52;;;;;;;0.00;0.00;;;;;;;;;;5009566;28;20049;-70
2022/07/19 01:38:18;;;;;;;0.00;0.00;;;;;;;;;;5012571;28;20121;-70
2022/07/19 01:40:43;;;;;;;0.00;0.00;;;;;;;;;;5011007;28;20018;-70
2022/07/19 01:43:08;;;;;;;0.00;0.00;;;;;;;;;;5012614;28;20036;-70
2022/07/19 01:45:33;;;;;;;0.00;0.00;;;;;;;;;;5012069;28;20068;-71
2022/07/19 01:47:58;;;;;;;0.00;0.00;;;;;;;;;;5013620;28;20041;-70
2022/07/19 01:50:24;;;;;;;0.22;0.22;;;;;;;;;;5004489;28;20265;-69
2022/07/19 01:52:49;;;;;;;0.00;0.00;;;;;;;;;;5012648;28;20022;-69
2022/07/19 01:55:14;;;;;;;0.00;0.00;;;;;;;;;;5010897;28;20021;-69
2022/07/19 01:57:40;;;;;;;0.00;0.00;;;;;;;;;;5013063;28;20022;-69
2022/07/19 02:00:06;;;;;;;0.00;0.00;;;;;;;;;;5011099;28;20056;-70
2022/07/19 02:02:31;;;;;;;0.00;0.00;;;;;;;;;;5011866;28;20125;-70
2022/07/19 02:04:56;;;;;;;0.00;0.00;;;;;;;;;;5009132;28;20723;-71
2022/07/19 02:07:21;;;;;;;0.00;0.00;;;;;;;;;;5012248;28;20471;-68
2022/07/19 02:09:46;;;;;;;0.00;0.00;;;;;;;;;;5033032;28;20045;-68
2022/07/19 02:12:12;;;;;;;0.00;0.00;;;;;;;;;;5032055;28;20056;-68
2022/07/19 02:14:37;;;;;;;0.00;0.00;;;;;;;;;;5029738;28;20342;-68
2022/07/19 02:17:02;;;;;;;0.00;0.00;;;;;;;;;;5030314;28;20029;-68
2022/07/19 02:19:27;;;;;;;0.00;0.00;;;;;;;;;;5033178;28;20033;-68
2022/07/19 02:21:53;;;;;;;0.00;0.00;;;;;;;;;;5031135;28;20117;-68
2022/07/19 02:24:18;;;;;;;0.00;0.00;;;;;;;;;;5035074;28;20032;-68
2022/07/19 02:26:43;;;;;;;0.00;0.00;;;;;;;;;;5036160;28;20024;-68
2022/07/19 02:29:09;;;;;;;0.00;0.00;;;;;;;;;;5032478;28;20032;-68
2022/07/19 02:31:34;;;;;;;0.00;0.00;;;;;;;;;;5028094;28;20421;-68
2022/07/19 02:34:00;;;;;;;0.00;0.00;;;;;;;;;;5033104;28;20029;-68
2022/07/19 02:36:25;;;;;;;0.00;0.00;;;;;;;;;;5031168;28;20034;-68
2022/07/19 02:38:50;;;;;;;0.00;0.00;;;;;;;;;;5029808;28;20021;-68
2022/07/19 02:41:16;;;;;;;0.00;0.00;;;;;;;;;;5030064;28;20040;-68
2022/07/19 02:43:42;;;;;;;0.00;0.00;;;;;;;;;;5033325;28;20020;-68
2022/07/19 02:46:07;;;;;;;0.00;0.00;;;;;;;;;;5013252;28;20030;-68
2022/07/19 02:48:32;;;;;;;0.00;0.00;;;;;;;;;;5030493;28;20410;-68
2022/07/19 02:50:57;;;;;;;0.00;0.00;;;;;;;;;;5032585;28;20295;-68
2022/07/19 02:53:23;;;;;;;0.00;0.00;;;;;;;;;;5031554;28;20025;-68
2022/07/19 02:55:48;;;;;;;0.20;0.20;;;;;;;;;;5032512;28;20041;-68
2022/07/19 02:58:13;;;;;;;0.00;0.00;;;;;;;;;;5031350;28;20450;-68
2022/07/19 03:00:38;;;;;;;0.00;0.00;;;;;;;;;;5028547;28;20557;-68
2022/07/19 03:05:48;;;;;;;0.00;0.00;;;;;;;;;;5031436;28;20048;-68
2022/07/19 03:08:14;;;;;;;0.00;0.00;;;;;;;;;;5030812;28;20037;-68
2022/07/19 03:10:39;;;;;;;0.55;0.30;;;;;;;;;;5035586;28;20045;-68
2022/07/19 03:13:04;;;;;;;0.00;0.00;;;;;;;;;;5030763;28;20084;-68
2022/07/19 03:15:29;;;;;;;0.75;0.75;;;;;;;;;;5037814;28;20036;-68
2022/07/19 03:17:55;;;;;;;0.00;0.00;;;;;;;;;;5035097;28;20108;-68
2022/07/19 03:20:20;;;;;;;0.00;0.00;;;;;;;;;;5032399;28;20057;-68
2022/07/19 03:22:45;;;;;;;0.00;0.00;;;;;;;;;;5029496;28;20299;-68
2022/07/19 03:25:10;;;;;;;0.00;0.00;;;;;;;;;;5031894;28;20017;-68
2022/07/19 03:27:35;;;;;;;0.00;0.00;;;;;;;;;;5030219;28;20100;-68
2022/07/19 03:30:01;;;;;;;0.00;0.00;;;;;;;;;;5030628;28;20017;-68
2022/07/19 03:32:26;;;;;;;0.00;0.00;;;;;;;;;;5033675;28;20025;-68
2022/07/19 03:34:51;;;;;;;0.00;0.00;;;;;;;;;;5032327;28;20018;-68
2022/07/19 03:37:17;;;;;;;0.00;0.00;;;;;;;;;;5030553;28;20060;-68
2022/07/19 03:39:42;;;;;;;0.00;0.00;;;;;;;;;;5031489;28;20028;-68
2022/07/19 03:42:07;;;;;;;0.70;0.70;;;;;;;;;;5034761;28;20429;-68
2022/07/19 03:44:32;;;;;;;4.55;4.35;;;;;;;;;;5035535;28;20466;-68
2022/07/19 03:46:57;;;;;;;0.00;0.00;;;;;;;;;;5030510;28;20076;-68
2022/07/19 03:49:23;;;;;;;0.00;0.00;;;;;;;;;;5030318;28;20018;-68
2022/07/19 03:51:48;;;;;;;1.45;1.45;;;;;;;;;;5030693;28;20075;-67
2022/07/19 03:54:13;;;;;;;0.00;0.00;;;;;;;;;;5032132;28;20044;-68
2022/07/19 03:56:38;;;;;;;1.08;1.08;;;;;;;;;;5030409;28;20344;-68
2022/07/19 03:59:04;;;;;;;0.00;0.00;;;;;;;;;;5029744;28;20026;-68
2022/07/19 04:01:29;;;;;;;1.30;1.30;;;;;;;;;;5030797;28;20041;-68
2022/07/19 04:03:55;;;;;;;0.00;0.00;;;;;;;;;;5030876;28;20032;-68
2022/07/19 04:06:20;;;;;;;0.00;0.00;;;;;;;;;;5030387;28;20021;-68
2022/07/19 04:08:45;;;;;;;0.00;0.00;;;;;;;;;;5019145;28;20057;-68
2022/07/19 04:11:10;;;;;;;0.00;0.00;;;;;;;;;;5010800;28;20041;-68
2022/07/19 04:13:35;;;;;;;0.00;0.00;;;;;;;;;;5010574;28;20029;-67
2022/07/19 04:16:01;;;;;;;0.00;0.00;;;;;;;;;;5010681;28;20026;-67
2022/07/19 04:18:26;;;;;;;0.00;0.00;;;;;;;;;;4975062;28;20026;-68
2022/07/19 04:20:51;;;;;;;0.17;0.17;;;;;;;;;;5009206;28;20031;-67
2022/07/19 04:23:17;;;;;;;0.00;0.00;;;;;;;;;;5009184;28;20049;-68
2022/07/19 04:25:42;;;;;;;0.00;0.00;;;;;;;;;;5011133;28;20026;-68
2022/07/19 04:28:07;;;;;;;0.00;0.00;;;;;;;;;;5009868;28;20026;-68
2022/07/19 04:30:33;;;;;;;0.00;0.00;;;;;;;;;;5015147;28;20372;-68
2022/07/19 04:32:58;;;;;;;0.00;0.00;;;;;;;;;;5011587;28;20048;-68
2022/07/19 04:35:23;;;;;;;0.00;0.00;;;;;;;;;;5014821;28;20034;-68
2022/07/19 04:37:48;;;;;;;0.30;0.30;;;;;;;;;;5012975;28;20025;-68
2022/07/19 04:40:13;;;;;;;0.00;0.00;;;;;;;;;;5013746;28;20033;-68
2022/07/19 04:42:39;;;;;;;0.00;0.00;;;;;;;;;;4995634;28;20061;-67
2022/07/19 04:45:04;;;;;;;0.00;0.00;;;;;;;;;;5012215;28;20049;-69
2022/07/19 04:47:30;;;;;;;0.00;0.00;;;;;;;;;;5013207;28;20025;-68
2022/07/19 04:49:55;;;;;;;0.63;0.63;;;;;;;;;;5012506;28;20022;-65
2022/07/19 04:52:20;;;;;;;0.00;0.00;;;;;;;;;;5013698;28;20073;-66
2022/07/19 04:54:45;;;;;;;0.00;0.00;;;;;;;;;;5007033;28;20120;-66
2022/07/19 04:57:11;;;;;;;0.00;0.00;;;;;;;;;;5011911;28;20098;-66
2022/07/19 04:59:36;;;;;;;0.00;0.00;;;;;;;;;;5012524;28;20672;-65
2022/07/19 05:02:01;;;;;;;0.00;0.00;;;;;;;;;;5013419;28;20034;-65
2022/07/19 05:04:26;;;;;;;0.00;0.00;;;;;;;;;;5010056;28;20030;-66
2022/07/19 05:06:56;;;;;;;0.00;0.00;;;;;;;;;;5013130;28;20088;-66
2022/07/19 05:09:22;;;;;;;0.00;0.00;;;;;;;;;;5027749;28;20097;-65
2022/07/19 05:11:47;;;;;;;0.00;0.00;;;;;;;;;;5031673;28;20112;-66
2022/07/19 05:14:12;;;;;;;0.00;0.00;;;;;;;;;;5031111;28;20041;-66
2022/07/19 05:16:37;;;;;;;0.10;0.10;;;;;;;;;;5032721;28;20116;-66
2022/07/19 05:19:02;;;;;;;0.00;0.00;;;;;;;;;;5031546;28;20445;-65
2022/07/19 05:21:28;;;;;;;0.00;0.00;;;;;;;;;;5031696;28;20051;-65
2022/07/19 05:23:53;;;;;;;0.00;0.00;;;;;;;;;;5031923;28;20018;-66
2022/07/19 05:26:18;;;;;;;0.00;0.00;;;;;;;;;;5028756;28;20470;-65
2022/07/19 05:28:43;;;;;;;0.00;0.00;;;;;;;;;;5032292;28;20447;-68
2022/07/19 05:31:08;;;;;;;0.00;0.00;;;;;;;;;;5029974;28;20697;-66
2022/07/19 05:33:34;;;;;;;0.00;0.00;;;;;;;;;;5033574;28;20481;-66
2022/07/19 05:35:59;;;;;;;0.55;0.55;;;;;;;;;;5030281;28;20064;-67
2022/07/19 05:38:24;;;;;;;0.00;0.00;;;;;;;;;;5031576;28;20033;-67
2022/07/19 05:40:50;;;;;;;1.38;1.27;;;;;;;;;;5010687;28;20539;-67
2022/07/19 05:43:15;;;;;;;0.35;0.35;;;;;;;;;;5031656;28;20378;-65
2022/07/19 05:45:40;;;;;;;0.00;0.00;;;;;;;;;;5028430;28;20374;-66
2022/07/19 05:48:06;;;;;;;0.00;0.00;;;;;;;;;;5029521;28;20016;-66
2022/07/19 05:50:31;;;;;;;0.00;0.00;;;;;;;;;;5029673;28;20467;-65
2022/07/19 05:52:56;;;;;;;0.00;0.00;;;;;;;;;;5029408;28;20076;-65
2022/07/19 05:55:22;;;;;;;0.00;0.00;;;;;;;;;;5028462;28;20045;-65
2022/07/19 05:57:47;;;;;;;0.00;0.00;;;;;;;;;;5030062;28;20260;-66
2022/07/19 06:00:14;;;;;;;0.00;0.00;;;;;;;;;;5029920;28;20048;-67
2022/07/19 06:02:39;;;;;;;0.00;0.00;;;;;;;;;;5030047;28;20457;-67
2022/07/19 06:05:05;;;;;;;0.13;0.13;;;;;;;;;;5027854;28;20726;-68
2022/07/19 06:07:30;;;;;;;0.28;0.28;;;;;;;;;;5029815;28;20018;-69
2022/07/19 06:09:55;;;;;;;0.93;0.80;;;;;;;;;;5027913;28;20029;-68
2022/07/19 06:12:20;;;;;;;0.00;0.00;;;;;;;;;;5028919;28;20048;-68
2022/07/19 06:14:46;;;;;;;0.00;0.00;;;;;;;;;;5029792;28;20029;-69
2022/07/19 06:17:11;;;;;;;0.00;0.00;;;;;;;;;;5027470;28;20025;-68
2022/07/19 06:19:36;;;;;;;0.00;0.00;;;;;;;;;;5029124;28;20040;-68
2022/07/19 06:22:01;;;;;;;0.00;0.00;;;;;;;;;;5028369;28;20314;-68
2022/07/19 06:24:26;;;;;;;0.00;0.00;;;;;;;;;;5027718;28;20760;-68
2022/07/19 06:26:52;;;;;;;0.27;0.10;;;;;;;;;;5027921;28;20264;-68
2022/07/19 06:29:17;;;;;;;0.00;0.00;;;;;;;;;;5028255;28;20277;-68
2022/07/19 06:31:42;;;;;;;0.00;0.00;;;;;;;;;;5029434;28;20275;-68
2022/07/19 06:34:07;;;;;;;0.00;0.00;;;;;;;;;;5028579;28;20272;-68
2022/07/19 06:36:33;;;;;;;0.03;0.03;;;;;;;;;;5028336;28;20029;-68
2022/07/19 06:38:58;;;;;;;2.08;0.88;;;;;;;;;;5026681;28;20305;-68
2022/07/19 06:41:23;;;;;;;0.00;0.00;;;;;;;;;;5029131;28;20024;-68
2022/07/19 06:43:48;;;;;;;0.00;0.00;;;;;;;;;;5028636;28;20264;-68
2022/07/19 06:46:13;;;;;;;0.00;0.00;;;;;;;;;;5027504;28;20733;-67
2022/07/19 06:48:39;;;;;;;0.00;0.00;;;;;;;;;;5028840;28;20740;-69
2022/07/19 06:51:07;;;;;;;0.00;0.00;;;;;;;;;;5025627;28;20760;-69
2022/07/19 06:53:33;;;;;;;0.00;0.00;;;;;;;;;;5027012;28;20033;-69
2022/07/19 06:55:58;;;;;;;0.00;0.00;;;;;;;;;;5026250;28;20079;-70
2022/07/19 06:58:24;;;;;;;0.00;0.00;;;;;;;;;;5024987;28;20038;-70
2022/07/19 07:00:49;;;;;;;0.00;0.00;;;;;;;;;;5027512;28;20067;-70
2022/07/19 07:03:15;;;;;;;0.00;0.00;;;;;;;;;;5025790;28;20456;-69
2022/07/19 07:05:40;;;;;;;0.00;0.00;;;;;;;;;;5028522;28;20018;-69
2022/07/19 07:08:05;;;;;;;0.00;0.00;;;;;;;;;;5026054;28;20116;-70
2022/07/19 07:10:31;;;;;;;0.00;0.00;;;;;;;;;;5030934;28;20025;-69
2022/07/19 07:12:56;;;;;;;0.00;0.00;;;;;;;;;;5030203;28;20101;-70
2022/07/19 07:15:21;;;;;;;0.00;0.00;;;;;;;;;;5028905;28;20021;-70
2022/07/19 07:17:46;;;;;;;0.00;0.00;;;;;;;;;;5031309;28;20025;-69
2022/07/19 07:20:12;;;;;;;0.00;0.00;;;;;;;;;;5030590;28;20079;-70
2022/07/19 07:22:37;;;;;;;0.00;0.00;;;;;;;;;;5031623;28;20164;-70
2022/07/19 07:25:03;;;;;;;0.00;0.00;;;;;;;;;;5026453;28;20372;-70
2022/07/19 07:27:28;;;;;;;0.00;0.00;;;;;;;;;;5030036;28;20108;-69
2022/07/19 07:29:54;;;;;;;0.00;0.00;;;;;;;;;;5029102;28;20378;-66
2022/07/19 07:32:19;;;;;;;0.00;0.00;;;;;;;;;;5030375;28;20725;-66
2022/07/19 07:34:45;;;;;;;0.00;0.00;;;;;;;;;;5030023;28;20060;-66
2022/07/19 07:37:10;;;;;;;0.00;0.00;;;;;;;;;;5030316;28;20111;-66
2022/07/19 07:39:36;;;;;;;0.00;0.00;;;;;;;;;;5029623;28;20017;-66
2022/07/19 07:42:03;;;;;;;0.10;0.10;;;;;;;;;;5030896;28;20448;-66
2022/07/19 07:44:28;;;;;;;0.00;0.00;;;;;;;;;;5026025;28;20022;-66
2022/07/19 07:46:53;;;;;;;0.00;0.00;;;;;;;;;;5029482;28;20148;-66
2022/07/19 07:49:19;;;;;;;0.67;0.67;;;;;;;;;;5031064;28;20139;-66
2022/07/19 07:51:44;;;;;;;0.70;0.70;;;;;;;;;;5029902;28;20382;-65
2022/07/19 07:54:09;;;;;;;0.00;0.00;;;;;;;;;;5030235;28;20029;-66
2022/07/19 07:56:35;;;;;;;0.00;0.00;;;;;;;;;;5029186;28;20263;-66
2022/07/19 07:59:00;;;;;;;0.00;0.00;;;;;;;;;;5027995;28;20121;-66
2022/07/19 08:01:25;;;;;;;0.00;0.00;;;;;;;;;;5034749;28;20100;-66
2022/07/19 08:03:50;;;;;;;0.00;0.00;;;;;;;;;;5033002;28;20109;-66
2022/07/19 08:06:16;;;;;;;0.40;0.30;;;;;;;;;;5035636;28;20124;-66
2022/07/19 08:08:41;;;;;;;0.00;0.00;;;;;;;;;;5030389;28;20358;-66
2022/07/19 08:11:07;;;;;;;0.00;0.00;;;;;;;;;;5018141;28;20033;-67
2022/07/19 08:13:32;;;;;;;0.10;0.10;;;;;;;;;;5021452;28;20069;-67
2022/07/19 08:15:57;;;;;;;0.00;0.00;;;;;;;;;;5022470;28;20040;-67
2022/07/19 08:18:22;;;;;;;0.00;0.00;;;;;;;;;;5029177;28;20350;-69
2022/07/19 08:20:48;;;;;;;0.00;0.00;;;;;;;;;;5023906;28;20271;-69
2022/07/19 08:23:13;;;;;;;0.00;0.00;;;;;;;;;;5024461;28;20072;-70
2022/07/19 08:25:38;;;;;;;0.30;0.30;;;;;;;;;;5024740;28;20091;-70
2022/07/19 08:28:03;;;;;;;0.40;0.40;;;;;;;;;;5019562;28;20022;-70
2022/07/19 08:30:29;;;;;;;0.00;0.00;;;;;;;;;;5022607;28;20256;-71
2022/07/19 08:32:54;;;;;;;0.47;0.47;;;;;;;;;;5016957;28;20026;-68
2022/07/19 08:35:19;;;;;;;0.20;0.20;;;;;;;;;;5017713;28;20046;-68
2022/07/19 08:37:44;;;;;;;1.20;1.10;;;;;;;;;;5022314;28;20267;-69
2022/07/19 08:40:10;;;;;;;0.00;0.00;;;;;;;;;;5017185;28;20261;-69
2022/07/19 08:42:35;;;;;;;0.10;0.10;;;;;;;;;;5025818;28;20107;-68
2022/07/19 08:45:04;;;;;;;1.10;0.75;;;;;;;;;;5020760;28;20841;-67
2022/07/19 08:47:31;;;;;;;0.00;0.00;;;;;;;;;;5019429;28;20026;-67
2022/07/19 08:49:57;;;;;;;0.00;0.00;;;;;;;;;;5019108;28;20071;-66
2022/07/19 08:52:23;;;;;;;0.00;0.00;;;;;;;;;;5016207;28;20501;-68
2022/07/19 08:54:48;;;;;;;0.13;0.13;;;;;;;;;;5023732;28;20050;-70
2022/07/19 08:59:57;;;;;;;0.00;0.00;;;;;;;;;;5018757;28;20390;-68
2022/07/19 09:02:23;;;;;;;0.07;0.03;;;;;;;;;;5017453;28;20029;-67
2022/07/19 09:05:02;;;;;;;0.00;0.00;;;;;;;;;;5019874;28;20257;-67
2022/07/19 09:07:27;;;;;;;0.00;0.00;;;;;;;;;;5010658;28;20059;-67
2022/07/19 09:10:12;;;;;;;0.00;0.00;;;;;;;;;;5012338;28;20029;-67
2022/07/19 09:12:56;;;;;;;0.30;0.25;;;;;;;;;;5010170;28;20037;-67
2022/07/19 09:15:34;;;;;;;0.00;0.00;;;;;;;;;;5010304;28;20032;-67
2022/07/19 09:18:07;;;;;;;0.00;0.00;;;;;;;;;;5009619;28;20552;-68
2022/07/19 09:20:32;;;;;;;0.00;0.00;;;;;;;;;;5011131;28;20451;-68
2022/07/19 09:22:57;;;;;;;0.00;0.00;;;;;;;;;;5012422;28;20058;-68
2022/07/19 09:25:43;;;;;;;0.00;0.00;;;;;;;;;;5011035;28;20084;-68
2022/07/19 09:28:08;;;;;;;0.00;0.00;;;;;;;;;;5009237;28;20273;-68
2022/07/19 09:30:44;;;;;;;0.20;0.20;;;;;;;;;;5010947;28;20077;-68
2022/07/19 09:33:20;;;;;;;0.00;0.00;;;;;;;;;;5010507;28;20351;-68
2022/07/19 09:35:45;;;;;;;0.50;0.50;;;;;;;;;;5012499;28;20444;-66
2022/07/19 09:38:14;;;;;;;0.20;0.20;;;;;;;;;;5010506;28;20029;-68
2022/07/19 09:40:39;;;;;;;0.00;0.00;;;;;;;;;;5010652;28;20030;-67
2022/07/19 09:43:04;;;;;;;0.00;0.00;;;;;;;;;;5010448;28;20022;-68
2022/07/19 09:45:32;;;;;;;0.00;0.00;;;;;;;;;;5014164;28;20367;-68
2022/07/19 09:47:57;;;;;;;0.00;0.00;;;;;;;;;;5008874;28;20380;-68
2022/07/19 09:50:22;;;;;;;0.00;0.00;;;;;;;;;;5013652;28;20026;-69
2022/07/19 09:52:49;;;;;;;0.00;0.00;;;;;;;;;;5011641;28;20049;-68
2022/07/19 09:55:15;;;;;;;0.00;0.00;;;;;;;;;;5012396;28;20029;-67
2022/07/19 09:57:41;;;;;;;0.00;0.00;;;;;;;;;;5010964;28;20774;-68
2022/07/19 10:00:07;;;;;;;0.00;0.00;;;;;;;;;;5011605;28;20097;-67
2022/07/19 10:02:34;;;;;;;0.00;0.00;;;;;;;;;;5010501;28;20049;-67
2022/07/19 10:05:01;;;;;;;7.32;6.80;;;;;;;;;;5010869;28;20716;-68
2022/07/19 10:07:26;;;;;;;0.73;0.73;;;;;;;;;;5011311;28;20017;-67
2022/07/19 10:09:52;;;;;;;0.00;0.00;;;;;;;;;;5029345;28;20045;-66
2022/07/19 10:12:17;;;;;;;0.00;0.00;;;;;;;;;;5032603;28;20136;-68
2022/07/19 10:14:43;;;;;;;0.00;0.00;;;;;;;;;;5032650;28;20044;-68
2022/07/19 10:17:17;;;;;;;0.63;0.47;;;;;;;;;;5031187;28;20014;-74
2022/07/19 10:19:43;;;;;;;0.00;0.00;;;;;;;;;;5029040;28;20037;-69
2022/07/19 10:22:13;;;;;;;0.00;0.00;;;;;;;;;;5030643;28;20033;-69
2022/07/19 10:24:52;;;;;;;0.00;0.00;;;;;;;;;;5031254;28;20454;-68
2022/07/19 10:27:18;;;;;;;0.00;0.00;;;;;;;;;;5011798;28;20556;-68
2022/07/19 10:29:44;;;;;;;0.00;0.00;;;;;;;;;;5031274;28;20442;-69
2022/07/19 10:32:10;;;;;;;1.73;0.57;;;;;;;;;;5031949;28;20017;-67
2022/07/19 10:34:36;;;;;;;0.10;0.10;;;;;;;;;;5033056;28;20035;-67
2022/07/19 10:37:02;;;;;;;0.55;0.55;;;;;;;;;;5034296;28;20489;-67
2022/07/19 10:39:29;;;;;;;0.05;0.05;;;;;;;;;;5033712;28;20550;-66
2022/07/19 10:42:07;;;;;;;0.00;0.00;;;;;;;;;;5033388;28;20032;-66
2022/07/19 10:44:33;;;;;;;0.52;0.20;;;;;;;;;;5034853;28;20701;-67
2022/07/19 10:46:58;;;;;;;0.00;0.00;;;;;;;;;;5031751;28;20022;-66
2022/07/19 10:49:53;;;;;;;0.85;0.85;;;;;;;;;;5032420;28;20493;-66
2022/07/19 10:52:27;;;;;;;0.30;0.30;;;;;;;;;;5020232;28;20033;-65
2022/07/19 10:55:12;;;;;;;0.35;0.35;;;;;;;;;;5032338;28;20505;-66
2022/07/19 10:57:38;;;;;;;3.10;1.45;;;;;;;;;;5022881;28;20049;-66
2022/07/19 11:00:19;;;;;;;0.30;0.30;;;;;;;;;;5033441;28;20096;-66
2022/07/19 11:02:45;;;;;;;0.05;0.05;;;;;;;;;;5032871;28;20485;-67
2022/07/19 11:05:23;;;;;;;0.17;0.17;;;;;;;;;;5034742;28;20036;-66
2022/07/19 11:07:50;;;;;;;0.30;0.30;;;;;;;;;;5032300;28;20510;-66
2022/07/19 11:10:25;;;;;;;0.00;0.00;;;;;;;;;;5029758;28;20029;-66
2022/07/19 11:12:51;;;;;;;0.08;0.08;;;;;;;;;;5030622;28;20025;-66
2022/07/19 11:15:16;;;;;;;0.00;0.00;;;;;;;;;;5029504;28;20100;-66
2022/07/19 11:17:56;;;;;;;0.57;0.57;;;;;;;;;;5030263;28;20025;-65
2022/07/19 11:20:22;;;;;;;0.57;0.57;;;;;;;;;;5028419;28;20033;-66
2022/07/19 11:22:47;;;;;;;0.00;0.00;;;;;;;;;;5030263;28;20029;-65
2022/07/19 11:25:14;;;;;;;0.45;0.45;;;;;;;;;;5028575;28;20383;-66
2022/07/19 11:27:40;;;;;;;0.10;0.03;;;;;;;;;;5030026;28;20018;-66
2022/07/19 11:30:06;;;;;;;0.10;0.10;;;;;;;;;;5028610;28;20014;-66
2022/07/19 11:32:31;;;;;;;0.03;0.03;;;;;;;;;;5031134;28;20025;-68
2022/07/19 11:34:58;;;;;;;2.50;2.42;;;;;;;;;;5027921;28;20021;-66
2022/07/19 11:37:28;;;;;;;0.00;0.00;;;;;;;;;;5033601;28;20026;-66
2022/07/19 11:39:53;;;;;;;0.00;0.00;;;;;;;;;;5032845;28;20370;-65
2022/07/19 11:42:31;;;;;;;0.00;0.00;;;;;;;;;;5015757;28;20025;-66
2022/07/19 11:44:56;;;;;;;0.20;0.20;;;;;;;;;;5033800;28;20024;-66
2022/07/19 11:47:21;;;;;;;0.00;0.00;;;;;;;;;;5032058;28;20664;-66
2022/07/19 11:49:47;;;;;;;0.00;0.00;;;;;;;;;;5033110;28;20025;-66
2022/07/19 11:52:12;;;;;;;0.00;0.00;;;;;;;;;;5033539;28;20035;-66
2022/07/19 11:54:40;;;;;;;1.80;0.47;;;;;;;;;;5034171;28;20025;-66
2022/07/19 11:57:21;;;;;;;0.32;0.32;;;;;;;;;;5030768;28;20028;-65
2022/07/19 11:59:47;;;;;;;0.52;0.52;;;;;;;;;;5033018;28;20080;-66
2022/07/19 12:02:12;;;;;;;1.02;1.02;;;;;;;;;;5031178;28;20028;-66
2022/07/19 12:04:37;;;;;;;0.32;0.32;;;;;;;;;;5034191;28;20036;-66
2022/07/19 12:07:03;;;;;;;0.00;0.00;;;;;;;;;;5029568;28;20458;-65
2022/07/19 12:09:28;;;;;;;0.10;0.10;;;;;;;;;;5030335;28;20128;-65
2022/07/19 12:11:55;;;;;;;0.00;0.00;;;;;;;;;;5031606;28;20084;-65
2022/07/19 12:14:27;;;;;;;0.00;0.00;;;;;;;;;;5032474;28;20503;-65
2022/07/19 12:17:11;;;;;;;0.00;0.00;;;;;;;;;;5031900;28;20379;-65
2022/07/19 12:19:37;;;;;;;0.10;0.10;;;;;;;;;;5030869;28;20645;-66
2022/07/19 12:22:02;;;;;;;0.65;0.57;;;;;;;;;;5032009;28;20120;-67
2022/07/19 12:24:30;;;;;;;0.10;0.10;;;;;;;;;;5029946;28;20017;-67
2022/07/19 12:27:07;;;;;;;0.73;0.25;;;;;;;;;;5032580;28;20027;-67
2022/07/19 12:29:33;;;;;;;0.00;0.00;;;;;;;;;;5031508;28;20029;-67
2022/07/19 12:32:08;;;;;;;1.65;1.17;;;;;;;;;;5031509;28;20025;-66
2022/07/19 12:34:42;;;;;;;4.30;0.68;;;;;;;;;;5032423;28;20048;-67
2022/07/19 12:37:17;;;;;;;0.22;0.22;;;;;;;;;;5032577;28;20025;-67
2022/07/19 12:39:55;;;;;;;0.20;0.20;;;;;;;;;;5030434;28;20563;-66
2022/07/19 12:42:20;;;;;;;0.65;0.32;;;;;;;;;;5031017;28;20041;-67
2022/07/19 12:44:45;;;;;;;0.00;0.00;;;;;;;;;;5030477;28;20028;-67
2022/07/19 12:47:11;;;;;;;0.10;0.10;;;;;;;;;;5030701;28;20259;-66
2022/07/19 12:49:43;;;;;;;0.30;0.30;;;;;;;;;;5031438;28;20021;-67
2022/07/19 12:52:08;;;;;;;0.00;0.00;;;;;;;;;;5031833;28;20021;-65
2022/07/19 12:54:34;;;;;;;0.00;0.00;;;;;;;;;;5030546;28;20028;-66
2022/07/19 12:56:59;;;;;;;0.00;0.00;;;;;;;;;;5030645;28;20109;-67
2022/07/19 12:59:39;;;;;;;1.20;0.87;;;;;;;;;;5031077;28;20303;-66
2022/07/19 13:02:09;;;;;;;0.00;0.00;;;;;;;;;;5031635;28;20311;-65
2022/07/19 13:04:34;;;;;;;0.10;0.10;;;;;;;;;;5030718;28;20112;-68
2022/07/19 13:07:00;;;;;;;0.00;0.00;;;;;;;;;;5030523;28;20111;-66
2022/07/19 13:09:25;;;;;;;0.00;0.00;;;;;;;;;;5030352;28;20082;-66
2022/07/19 13:11:50;;;;;;;0.00;0.00;;;;;;;;;;5032037;28;20033;-66
2022/07/19 13:14:15;;;;;;;0.00;0.00;;;;;;;;;;5027694;28;20033;-67
2022/07/19 13:16:41;;;;;;;0.25;0.25;;;;;;;;;;5031407;28;20029;-66
2022/07/19 13:19:06;;;;;;;0.80;0.15;;;;;;;;;;5030894;28;20028;-66
2022/07/19 13:21:31;;;;;;;0.17;0.17;;;;;;;;;;5030748;28;20137;-66
2022/07/19 13:23:56;;;;;;;0.00;0.00;;;;;;;;;;5030258;28;20017;-66
2022/07/19 13:26:22;;;;;;;0.00;0.00;;;;;;;;;;5031913;28;20257;-66
2022/07/19 13:28:47;;;;;;;0.00;0.00;;;;;;;;;;5030523;28;20028;-67
2022/07/19 13:31:12;;;;;;;0.00;0.00;;;;;;;;;;5029018;28;20741;-66
2022/07/19 13:33:38;;;;;;;0.00;0.00;;;;;;;;;;5031634;28;20260;-67
2022/07/19 13:36:03;;;;;;;0.00;0.00;;;;;;;;;;5029655;28;20038;-67
2022/07/19 13:38:31;;;;;;;0.00;0.00;;;;;;;;;;5030423;28;20022;-67
2022/07/19 13:40:56;;;;;;;9.30;6.03;;;;;;;;;;5030656;28;20454;-67
2022/07/19 13:43:22;;;;;;;8.80;1.90;;;;;;;;;;5031106;28;20036;-67
2022/07/19 13:45:47;;;;;;;0.00;0.00;;;;;;;;;;5033030;28;20467;-65
2022/07/19 13:48:12;;;;;;;0.20;0.20;;;;;;;;;;5032591;28;20036;-66
2022/07/19 13:50:38;;;;;;;0.00;0.00;;;;;;;;;;5030654;28;20042;-66
2022/07/19 13:53:03;;;;;;;0.20;0.20;;;;;;;;;;5031710;28;20033;-67
2022/07/19 13:55:29;;;;;;;0.00;0.00;;;;;;;;;;5030389;28;20040;-67
2022/07/19 13:57:54;;;;;;;0.35;0.35;;;;;;;;;;5031550;28;20271;-66
2022/07/19 14:00:20;;;;;;;0.27;0.27;;;;;;;;;;5029481;28;20106;-66
2022/07/19 14:02:46;;;;;;;0.13;0.13;;;;;;;;;;5030416;28;20323;-66
2022/07/19 14:05:12;;;;;;;0.40;0.40;;;;;;;;;;5029951;28;20119;-66
2022/07/19 14:07:37;;;;;;;0.30;0.30;;;;;;;;;;5015919;28;20033;-66
2022/07/19 14:10:03;;;;;;;0.00;0.00;;;;;;;;;;5030324;28;20049;-66
2022/07/19 14:12:29;;;;;;;5.78;1.55;;;;;;;;;;5030218;28;20482;-66
2022/07/19 14:14:54;;;;;;;0.50;0.30;;;;;;;;;;5031162;28;20030;-66
2022/07/19 14:17:19;;;;;;;0.10;0.10;;;;;;;;;;5031332;28;20367;-67
2022/07/19 14:19:44;;;;;;;0.22;0.22;;;;;;;;;;5030269;28;20314;-66
2022/07/19 14:22:10;;;;;;;0.00;0.00;;;;;;;;;;5030637;28;20088;-66
2022/07/19 14:24:35;;;;;;;0.20;0.20;;;;;;;;;;5029501;28;20087;-67
2022/07/19 14:27:01;;;;;;;0.08;0.08;;;;;;;;;;5029038;28;20021;-66
2022/07/19 14:29:26;;;;;;;0.10;0.10;;;;;;;;;;5029413;28;20079;-65
2022/07/19 14:31:51;;;;;;;0.32;0.15;;;;;;;;;;5030055;28;20521;-66
2022/07/19 14:34:17;;;;;;;19.83;1.10;;;;;;;;;;5029099;28;20437;-66
2022/07/19 14:36:42;;;;;;;0.10;0.10;;;;;;;;;;5029230;28;20828;-66
2022/07/19 14:39:08;;;;;;;0.83;0.83;;;;;;;;;;5029322;28;20354;-67
2022/07/19 14:41:33;;;;;;;0.28;0.28;;;;;;;;;;5030190;28;20268;-66
2022/07/19 14:43:59;;;;;;;0.20;0.20;;;;;;;;;;5032972;28;20110;-67